sensor_id;sensor_type;location;lat;lon;timestamp;P1;durP1;ratioP1;P2;durP2;ratioP2
53108;SDS011;39007;53.090;6.074;2024-02-04T00:01:39;14.88;;;3.58;;
53108;SDS011;39007;53.090;6.074;2024-02-04T00:04:05;14.35;;;3.30;;
53108;SDS011;39007;53.090;6.074;2024-02-04T00:06:31;17.27;;;3.58;;
53108;SDS011;39007;53.090;6.074;2024-02-04T00:08:57;18.33;;;3.50;;
53108;SDS011;39007;53.090;6.074;2024-02-04T00:11:23;18.95;;;3.95;;
53108;SDS011;39007;53.090;6.074;2024-02-04T00:13:49;13.80;;;3.03;;
53108;SDS011;39007;53.090;6.074;2024-02-04T00:16:15;13.55;;;3.33;;
53108;SDS011;39007;53.090;6.074;2024-02-04T00:18:42;15.38;;;3.42;;
53108;SDS011;39007;53.090;6.074;2024-02-04T00:21:08;17.08;;;2.97;;
53108;SDS011;39007;53.090;6.074;2024-02-04T00:23:34;16.77;;;3.38;;
53108;SDS011;39007;53.090;6.074;2024-02-04T00:26:00;15.07;;;3.40;;
53108;SDS011;39007;53.090;6.074;2024-02-04T00:28:26;16.70;;;3.25;;
53108;SDS011;39007;53.090;6.074;2024-02-04T00:30:53;16.05;;;3.50;;
53108;SDS011;39007;53.090;6.074;2024-02-04T00:33:21;12.75;;;3.05;;
53108;SDS011;39007;53.090;6.074;2024-02-04T00:35:47;13.57;;;3.20;;
53108;SDS011;39007;53.090;6.074;2024-02-04T00:38:13;17.23;;;3.15;;
53108;SDS011;39007;53.090;6.074;2024-02-04T00:40:39;12.57;;;3.03;;
53108;SDS011;39007;53.090;6.074;2024-02-04T00:43:05;15.90;;;3.03;;
53108;SDS011;39007;53.090;6.074;2024-02-04T00:45:31;17.25;;;2.80;;
53108;SDS011;39007;53.090;6.074;2024-02-04T00:47:58;13.98;;;3.30;;
53108;SDS011;39007;53.090;6.074;2024-02-04T00:50:24;13.38;;;2.92;;
53108;SDS011;39007;53.090;6.074;2024-02-04T00:52:50;17.52;;;3.70;;
53108;SDS011;39007;53.090;6.074;2024-02-04T00:55:18;13.68;;;3.53;;
53108;SDS011;39007;53.090;6.074;2024-02-04T00:57:44;17.55;;;3.75;;
53108;SDS011;39007;53.090;6.074;2024-02-04T01:00:11;17.17;;;3.40;;
53108;SDS011;39007;53.090;6.074;2024-02-04T01:02:40;18.00;;;3.60;;
53108;SDS011;39007;53.090;6.074;2024-02-04T01:05:06;18.98;;;3.65;;
53108;SDS011;39007;53.090;6.074;2024-02-04T01:07:33;16.13;;;3.20;;
53108;SDS011;39007;53.090;6.074;2024-02-04T01:09:59;18.15;;;3.60;;
53108;SDS011;39007;53.090;6.074;2024-02-04T01:12:25;13.13;;;3.17;;
53108;SDS011;39007;53.090;6.074;2024-02-04T01:14:51;18.92;;;3.58;;
53108;SDS011;39007;53.090;6.074;2024-02-04T01:17:17;13.20;;;3.47;;
53108;SDS011;39007;53.090;6.074;2024-02-04T01:19:43;15.45;;;3.20;;
53108;SDS011;39007;53.090;6.074;2024-02-04T01:22:09;17.65;;;3.60;;
53108;SDS011;39007;53.090;6.074;2024-02-04T01:24:35;20.10;;;3.80;;
53108;SDS011;39007;53.090;6.074;2024-02-04T01:27:01;17.98;;;3.05;;
53108;SDS011;39007;53.090;6.074;2024-02-04T01:29:27;21.27;;;3.42;;
53108;SDS011;39007;53.090;6.074;2024-02-04T01:31:53;19.10;;;3.78;;
53108;SDS011;39007;53.090;6.074;2024-02-04T01:34:19;16.80;;;3.03;;
53108;SDS011;39007;53.090;6.074;2024-02-04T01:36:45;19.95;;;3.70;;
53108;SDS011;39007;53.090;6.074;2024-02-04T01:39:12;18.85;;;3.65;;
53108;SDS011;39007;53.090;6.074;2024-02-04T01:41:38;17.17;;;3.45;;
53108;SDS011;39007;53.090;6.074;2024-02-04T01:44:04;16.75;;;3.38;;
53108;SDS011;39007;53.090;6.074;2024-02-04T01:46:31;20.13;;;3.80;;
53108;SDS011;39007;53.090;6.074;2024-02-04T01:48:57;17.27;;;3.53;;
53108;SDS011;39007;53.090;6.074;2024-02-04T01:51:23;22.00;;;3.80;;
53108;SDS011;39007;53.090;6.074;2024-02-04T01:53:50;14.52;;;3.50;;
53108;SDS011;39007;53.090;6.074;2024-02-04T01:56:16;17.98;;;3.60;;
53108;SDS011;39007;53.090;6.074;2024-02-04T01:58:42;16.85;;;2.85;;
53108;SDS011;39007;53.090;6.074;2024-02-04T02:01:13;14.30;;;3.13;;
53108;SDS011;39007;53.090;6.074;2024-02-04T02:03:39;15.45;;;3.65;;
53108;SDS011;39007;53.090;6.074;2024-02-04T02:06:05;17.33;;;3.47;;
53108;SDS011;39007;53.090;6.074;2024-02-04T02:08:32;19.50;;;3.58;;
53108;SDS011;39007;53.090;6.074;2024-02-04T02:11:41;15.27;;;3.38;;
53108;SDS011;39007;53.090;6.074;2024-02-04T02:13:50;18.73;;;3.55;;
53108;SDS011;39007;53.090;6.074;2024-02-04T02:16:20;15.38;;;3.60;;
53108;SDS011;39007;53.090;6.074;2024-02-04T02:18:54;17.08;;;3.55;;
53108;SDS011;39007;53.090;6.074;2024-02-04T02:21:38;19.08;;;4.03;;
53108;SDS011;39007;53.090;6.074;2024-02-04T02:24:11;20.52;;;3.85;;
53108;SDS011;39007;53.090;6.074;2024-02-04T02:26:37;20.08;;;3.92;;
53108;SDS011;39007;53.090;6.074;2024-02-04T02:29:04;18.55;;;4.05;;
53108;SDS011;39007;53.090;6.074;2024-02-04T02:31:30;20.30;;;4.15;;
53108;SDS011;39007;53.090;6.074;2024-02-04T02:33:57;18.45;;;4.20;;
53108;SDS011;39007;53.090;6.074;2024-02-04T02:36:23;15.70;;;3.85;;
53108;SDS011;39007;53.090;6.074;2024-02-04T02:39:03;19.92;;;4.00;;
53108;SDS011;39007;53.090;6.074;2024-02-04T02:41:34;19.65;;;4.05;;
53108;SDS011;39007;53.090;6.074;2024-02-04T02:44:01;22.25;;;3.67;;
53108;SDS011;39007;53.090;6.074;2024-02-04T02:46:28;19.50;;;3.45;;
53108;SDS011;39007;53.090;6.074;2024-02-04T02:48:55;23.20;;;3.80;;
53108;SDS011;39007;53.090;6.074;2024-02-04T02:51:21;13.52;;;3.30;;
53108;SDS011;39007;53.090;6.074;2024-02-04T02:53:47;21.23;;;3.80;;
53108;SDS011;39007;53.090;6.074;2024-02-04T02:56:13;20.42;;;3.92;;
53108;SDS011;39007;53.090;6.074;2024-02-04T02:58:39;22.17;;;3.60;;
53108;SDS011;39007;53.090;6.074;2024-02-04T03:01:05;19.33;;;3.78;;
53108;SDS011;39007;53.090;6.074;2024-02-04T03:03:31;23.33;;;3.80;;
53108;SDS011;39007;53.090;6.074;2024-02-04T03:05:57;18.83;;;3.90;;
53108;SDS011;39007;53.090;6.074;2024-02-04T03:08:23;18.70;;;4.05;;
53108;SDS011;39007;53.090;6.074;2024-02-04T03:10:49;21.42;;;4.00;;
53108;SDS011;39007;53.090;6.074;2024-02-04T03:13:16;17.20;;;3.90;;
53108;SDS011;39007;53.090;6.074;2024-02-04T03:15:42;17.92;;;3.63;;
53108;SDS011;39007;53.090;6.074;2024-02-04T03:18:08;24.65;;;3.58;;
53108;SDS011;39007;53.090;6.074;2024-02-04T03:20:34;19.80;;;4.13;;
53108;SDS011;39007;53.090;6.074;2024-02-04T03:23:00;14.48;;;3.35;;
53108;SDS011;39007;53.090;6.074;2024-02-04T03:25:26;20.60;;;3.60;;
53108;SDS011;39007;53.090;6.074;2024-02-04T03:27:54;24.88;;;4.22;;
53108;SDS011;39007;53.090;6.074;2024-02-04T03:30:20;18.08;;;3.40;;
53108;SDS011;39007;53.090;6.074;2024-02-04T03:32:46;19.33;;;4.07;;
53108;SDS011;39007;53.090;6.074;2024-02-04T03:35:13;27.55;;;4.38;;
53108;SDS011;39007;53.090;6.074;2024-02-04T03:37:39;25.65;;;3.70;;
53108;SDS011;39007;53.090;6.074;2024-02-04T03:40:05;24.08;;;4.07;;
53108;SDS011;39007;53.090;6.074;2024-02-04T03:42:31;27.05;;;3.72;;
53108;SDS011;39007;53.090;6.074;2024-02-04T03:44:57;25.85;;;3.83;;
53108;SDS011;39007;53.090;6.074;2024-02-04T03:47:23;20.02;;;4.03;;
53108;SDS011;39007;53.090;6.074;2024-02-04T03:49:49;20.58;;;4.32;;
53108;SDS011;39007;53.090;6.074;2024-02-04T03:52:15;20.70;;;4.25;;
53108;SDS011;39007;53.090;6.074;2024-02-04T03:54:41;26.90;;;4.00;;
53108;SDS011;39007;53.090;6.074;2024-02-04T03:57:07;23.75;;;3.85;;
53108;SDS011;39007;53.090;6.074;2024-02-04T03:59:35;20.35;;;3.90;;
53108;SDS011;39007;53.090;6.074;2024-02-04T04:02:01;23.67;;;3.83;;
53108;SDS011;39007;53.090;6.074;2024-02-04T04:04:27;18.92;;;3.17;;
53108;SDS011;39007;53.090;6.074;2024-02-04T04:06:53;22.73;;;3.72;;
53108;SDS011;39007;53.090;6.074;2024-02-04T04:09:19;19.25;;;4.75;;
53108;SDS011;39007;53.090;6.074;2024-02-04T04:11:45;25.63;;;4.82;;
53108;SDS011;39007;53.090;6.074;2024-02-04T04:14:11;22.55;;;4.40;;
53108;SDS011;39007;53.090;6.074;2024-02-04T04:16:37;23.98;;;4.47;;
53108;SDS011;39007;53.090;6.074;2024-02-04T04:19:03;21.80;;;4.72;;
53108;SDS011;39007;53.090;6.074;2024-02-04T04:21:29;27.45;;;4.38;;
53108;SDS011;39007;53.090;6.074;2024-02-04T04:23:55;27.20;;;4.22;;
53108;SDS011;39007;53.090;6.074;2024-02-04T04:26:21;26.83;;;5.35;;
53108;SDS011;39007;53.090;6.074;2024-02-04T04:28:48;24.52;;;4.50;;
53108;SDS011;39007;53.090;6.074;2024-02-04T04:31:14;23.65;;;3.90;;
53108;SDS011;39007;53.090;6.074;2024-02-04T04:33:40;22.42;;;3.92;;
53108;SDS011;39007;53.090;6.074;2024-02-04T04:36:06;19.88;;;4.00;;
53108;SDS011;39007;53.090;6.074;2024-02-04T04:38:33;23.20;;;3.88;;
53108;SDS011;39007;53.090;6.074;2024-02-04T04:40:59;26.52;;;3.78;;
53108;SDS011;39007;53.090;6.074;2024-02-04T04:43:25;31.25;;;4.55;;
53108;SDS011;39007;53.090;6.074;2024-02-04T04:45:52;23.85;;;3.95;;
53108;SDS011;39007;53.090;6.074;2024-02-04T04:48:18;25.33;;;3.85;;
53108;SDS011;39007;53.090;6.074;2024-02-04T04:50:44;21.55;;;3.83;;
53108;SDS011;39007;53.090;6.074;2024-02-04T04:53:10;23.98;;;3.80;;
53108;SDS011;39007;53.090;6.074;2024-02-04T04:55:36;25.50;;;4.18;;
53108;SDS011;39007;53.090;6.074;2024-02-04T04:58:02;27.23;;;4.28;;
53108;SDS011;39007;53.090;6.074;2024-02-04T05:00:28;18.98;;;4.32;;
53108;SDS011;39007;53.090;6.074;2024-02-04T05:02:54;23.70;;;4.57;;
53108;SDS011;39007;53.090;6.074;2024-02-04T05:05:20;26.33;;;4.13;;
53108;SDS011;39007;53.090;6.074;2024-02-04T05:07:46;24.27;;;3.88;;
53108;SDS011;39007;53.090;6.074;2024-02-04T05:10:12;25.00;;;3.90;;
53108;SDS011;39007;53.090;6.074;2024-02-04T05:12:39;24.75;;;4.10;;
53108;SDS011;39007;53.090;6.074;2024-02-04T05:15:05;22.65;;;4.53;;
53108;SDS011;39007;53.090;6.074;2024-02-04T05:17:31;23.73;;;4.18;;
53108;SDS011;39007;53.090;6.074;2024-02-04T05:19:58;20.90;;;4.43;;
53108;SDS011;39007;53.090;6.074;2024-02-04T05:22:24;19.88;;;3.95;;
53108;SDS011;39007;53.090;6.074;2024-02-04T05:24:50;18.23;;;3.63;;
53108;SDS011;39007;53.090;6.074;2024-02-04T05:27:16;24.88;;;4.40;;
53108;SDS011;39007;53.090;6.074;2024-02-04T05:29:42;28.20;;;4.32;;
53108;SDS011;39007;53.090;6.074;2024-02-04T05:32:10;25.25;;;3.83;;
53108;SDS011;39007;53.090;6.074;2024-02-04T05:34:36;21.45;;;4.28;;
53108;SDS011;39007;53.090;6.074;2024-02-04T05:37:02;17.95;;;4.15;;
53108;SDS011;39007;53.090;6.074;2024-02-04T05:39:29;24.00;;;4.28;;
53108;SDS011;39007;53.090;6.074;2024-02-04T05:41:55;22.17;;;4.30;;
53108;SDS011;39007;53.090;6.074;2024-02-04T05:44:21;21.80;;;4.43;;
53108;SDS011;39007;53.090;6.074;2024-02-04T05:46:47;16.27;;;3.88;;
53108;SDS011;39007;53.090;6.074;2024-02-04T05:49:13;23.02;;;3.72;;
53108;SDS011;39007;53.090;6.074;2024-02-04T05:51:39;24.58;;;4.57;;
53108;SDS011;39007;53.090;6.074;2024-02-04T05:54:05;20.25;;;3.53;;
53108;SDS011;39007;53.090;6.074;2024-02-04T05:56:31;24.08;;;4.22;;
53108;SDS011;39007;53.090;6.074;2024-02-04T05:58:58;22.05;;;3.60;;
53108;SDS011;39007;53.090;6.074;2024-02-04T06:01:24;27.30;;;4.18;;
53108;SDS011;39007;53.090;6.074;2024-02-04T06:03:50;23.20;;;4.10;;
53108;SDS011;39007;53.090;6.074;2024-02-04T06:06:17;19.85;;;3.65;;
53108;SDS011;39007;53.090;6.074;2024-02-04T06:08:45;18.48;;;3.83;;
53108;SDS011;39007;53.090;6.074;2024-02-04T06:11:11;19.90;;;4.07;;
53108;SDS011;39007;53.090;6.074;2024-02-04T06:13:39;19.88;;;3.47;;
53108;SDS011;39007;53.090;6.074;2024-02-04T06:16:05;19.30;;;4.72;;
53108;SDS011;39007;53.090;6.074;2024-02-04T06:18:31;26.13;;;4.43;;
53108;SDS011;39007;53.090;6.074;2024-02-04T06:20:57;19.13;;;3.65;;
53108;SDS011;39007;53.090;6.074;2024-02-04T06:23:23;25.17;;;4.50;;
53108;SDS011;39007;53.090;6.074;2024-02-04T06:25:49;20.67;;;3.85;;
53108;SDS011;39007;53.090;6.074;2024-02-04T06:28:15;18.30;;;3.88;;
53108;SDS011;39007;53.090;6.074;2024-02-04T06:30:41;25.60;;;3.90;;
53108;SDS011;39007;53.090;6.074;2024-02-04T06:33:07;19.77;;;3.70;;
53108;SDS011;39007;53.090;6.074;2024-02-04T06:35:33;26.85;;;4.35;;
53108;SDS011;39007;53.090;6.074;2024-02-04T06:38:00;17.25;;;3.40;;
53108;SDS011;39007;53.090;6.074;2024-02-04T06:40:26;26.75;;;4.72;;
53108;SDS011;39007;53.090;6.074;2024-02-04T06:42:52;25.92;;;4.60;;
53108;SDS011;39007;53.090;6.074;2024-02-04T06:45:18;26.17;;;4.35;;
53108;SDS011;39007;53.090;6.074;2024-02-04T06:47:44;22.60;;;4.60;;
53108;SDS011;39007;53.090;6.074;2024-02-04T06:50:10;23.23;;;4.38;;
53108;SDS011;39007;53.090;6.074;2024-02-04T06:52:45;28.02;;;4.97;;
53108;SDS011;39007;53.090;6.074;2024-02-04T06:55:12;26.27;;;4.55;;
53108;SDS011;39007;53.090;6.074;2024-02-04T06:57:38;19.63;;;4.32;;
53108;SDS011;39007;53.090;6.074;2024-02-04T07:00:05;22.73;;;4.13;;
53108;SDS011;39007;53.090;6.074;2024-02-04T07:02:33;21.92;;;3.90;;
53108;SDS011;39007;53.090;6.074;2024-02-04T07:04:59;21.58;;;4.50;;
53108;SDS011;39007;53.090;6.074;2024-02-04T07:07:26;27.20;;;4.45;;
53108;SDS011;39007;53.090;6.074;2024-02-04T07:09:52;23.33;;;4.32;;
53108;SDS011;39007;53.090;6.074;2024-02-04T07:12:18;20.20;;;4.10;;
53108;SDS011;39007;53.090;6.074;2024-02-04T07:14:44;24.10;;;4.07;;
53108;SDS011;39007;53.090;6.074;2024-02-04T07:17:10;21.60;;;4.45;;
53108;SDS011;39007;53.090;6.074;2024-02-04T07:19:37;24.45;;;4.55;;
53108;SDS011;39007;53.090;6.074;2024-02-04T07:22:03;22.70;;;4.25;;
53108;SDS011;39007;53.090;6.074;2024-02-04T07:24:29;24.23;;;4.40;;
53108;SDS011;39007;53.090;6.074;2024-02-04T07:26:55;21.52;;;4.50;;
53108;SDS011;39007;53.090;6.074;2024-02-04T07:29:21;21.38;;;3.65;;
53108;SDS011;39007;53.090;6.074;2024-02-04T07:31:47;21.63;;;4.85;;
53108;SDS011;39007;53.090;6.074;2024-02-04T07:34:13;24.80;;;3.72;;
53108;SDS011;39007;53.090;6.074;2024-02-04T07:36:39;20.60;;;3.95;;
53108;SDS011;39007;53.090;6.074;2024-02-04T07:39:05;23.70;;;4.32;;
53108;SDS011;39007;53.090;6.074;2024-02-04T07:41:32;21.58;;;4.32;;
53108;SDS011;39007;53.090;6.074;2024-02-04T07:43:58;17.95;;;3.60;;
53108;SDS011;39007;53.090;6.074;2024-02-04T07:46:24;16.20;;;4.05;;
53108;SDS011;39007;53.090;6.074;2024-02-04T07:48:50;18.23;;;4.05;;
53108;SDS011;39007;53.090;6.074;2024-02-04T07:51:16;24.05;;;4.20;;
53108;SDS011;39007;53.090;6.074;2024-02-04T07:53:42;21.35;;;4.05;;
53108;SDS011;39007;53.090;6.074;2024-02-04T07:56:09;19.92;;;3.67;;
53108;SDS011;39007;53.090;6.074;2024-02-04T07:58:36;17.50;;;3.60;;
53108;SDS011;39007;53.090;6.074;2024-02-04T08:01:02;17.52;;;3.92;;
53108;SDS011;39007;53.090;6.074;2024-02-04T08:03:29;22.75;;;4.35;;
53108;SDS011;39007;53.090;6.074;2024-02-04T08:05:55;14.57;;;3.35;;
53108;SDS011;39007;53.090;6.074;2024-02-04T08:08:21;18.20;;;3.60;;
53108;SDS011;39007;53.090;6.074;2024-02-04T08:10:47;21.73;;;4.15;;
53108;SDS011;39007;53.090;6.074;2024-02-04T08:13:13;20.98;;;3.95;;
53108;SDS011;39007;53.090;6.074;2024-02-04T08:15:39;17.27;;;3.83;;
53108;SDS011;39007;53.090;6.074;2024-02-04T08:18:05;15.40;;;3.80;;
53108;SDS011;39007;53.090;6.074;2024-02-04T08:20:32;17.80;;;3.47;;
53108;SDS011;39007;53.090;6.074;2024-02-04T08:22:58;19.25;;;3.97;;
53108;SDS011;39007;53.090;6.074;2024-02-04T08:25:24;22.35;;;4.20;;
53108;SDS011;39007;53.090;6.074;2024-02-04T08:27:50;20.17;;;3.40;;
53108;SDS011;39007;53.090;6.074;2024-02-04T08:30:17;13.60;;;3.88;;
53108;SDS011;39007;53.090;6.074;2024-02-04T08:32:44;17.13;;;3.78;;
53108;SDS011;39007;53.090;6.074;2024-02-04T08:35:10;14.93;;;3.63;;
53108;SDS011;39007;53.090;6.074;2024-02-04T08:37:36;24.30;;;4.10;;
53108;SDS011;39007;53.090;6.074;2024-02-04T08:40:03;16.42;;;3.63;;
53108;SDS011;39007;53.090;6.074;2024-02-04T08:42:30;14.13;;;3.33;;
53108;SDS011;39007;53.090;6.074;2024-02-04T08:44:56;18.08;;;4.07;;
53108;SDS011;39007;53.090;6.074;2024-02-04T08:47:22;19.13;;;3.80;;
53108;SDS011;39007;53.090;6.074;2024-02-04T08:49:49;18.95;;;3.30;;
53108;SDS011;39007;53.090;6.074;2024-02-04T08:52:15;17.08;;;3.70;;
53108;SDS011;39007;53.090;6.074;2024-02-04T08:54:41;20.27;;;3.92;;
53108;SDS011;39007;53.090;6.074;2024-02-04T08:57:07;16.13;;;3.72;;
53108;SDS011;39007;53.090;6.074;2024-02-04T08:59:33;20.73;;;4.25;;
53108;SDS011;39007;53.090;6.074;2024-02-04T09:02:00;19.58;;;3.88;;
53108;SDS011;39007;53.090;6.074;2024-02-04T09:04:26;16.40;;;3.63;;
53108;SDS011;39007;53.090;6.074;2024-02-04T09:06:52;21.42;;;5.43;;
53108;SDS011;39007;53.090;6.074;2024-02-04T09:09:18;16.55;;;3.65;;
53108;SDS011;39007;53.090;6.074;2024-02-04T09:11:44;18.48;;;3.60;;
53108;SDS011;39007;53.090;6.074;2024-02-04T09:14:10;16.95;;;3.42;;
53108;SDS011;39007;53.090;6.074;2024-02-04T09:16:39;17.15;;;3.63;;
53108;SDS011;39007;53.090;6.074;2024-02-04T09:19:05;17.65;;;3.63;;
53108;SDS011;39007;53.090;6.074;2024-02-04T09:21:31;16.35;;;3.38;;
53108;SDS011;39007;53.090;6.074;2024-02-04T09:23:58;15.20;;;3.33;;
53108;SDS011;39007;53.090;6.074;2024-02-04T09:26:24;15.85;;;3.28;;
53108;SDS011;39007;53.090;6.074;2024-02-04T09:28:50;17.10;;;3.50;;
53108;SDS011;39007;53.090;6.074;2024-02-04T09:31:16;17.65;;;3.17;;
53108;SDS011;39007;53.090;6.074;2024-02-04T09:33:42;14.88;;;4.30;;
53108;SDS011;39007;53.090;6.074;2024-02-04T09:36:08;16.52;;;3.33;;
53108;SDS011;39007;53.090;6.074;2024-02-04T09:38:34;18.70;;;3.63;;
53108;SDS011;39007;53.090;6.074;2024-02-04T09:41:01;13.43;;;2.80;;
53108;SDS011;39007;53.090;6.074;2024-02-04T09:43:31;17.77;;;3.60;;
53108;SDS011;39007;53.090;6.074;2024-02-04T09:45:58;16.52;;;3.50;;
53108;SDS011;39007;53.090;6.074;2024-02-04T09:48:25;16.40;;;3.55;;
53108;SDS011;39007;53.090;6.074;2024-02-04T09:50:52;19.95;;;3.72;;
53108;SDS011;39007;53.090;6.074;2024-02-04T09:53:21;15.57;;;3.10;;
53108;SDS011;39007;53.090;6.074;2024-02-04T09:55:48;16.40;;;3.38;;
53108;SDS011;39007;53.090;6.074;2024-02-04T09:58:15;19.73;;;3.13;;
53108;SDS011;39007;53.090;6.074;2024-02-04T10:00:41;13.25;;;3.13;;
53108;SDS011;39007;53.090;6.074;2024-02-04T10:03:10;15.60;;;3.03;;
53108;SDS011;39007;53.090;6.074;2024-02-04T10:05:36;17.10;;;3.15;;
53108;SDS011;39007;53.090;6.074;2024-02-04T10:08:02;13.57;;;2.70;;
53108;SDS011;39007;53.090;6.074;2024-02-04T10:10:28;22.02;;;4.50;;
53108;SDS011;39007;53.090;6.074;2024-02-04T10:12:55;13.68;;;3.33;;
53108;SDS011;39007;53.090;6.074;2024-02-04T10:15:21;15.07;;;2.90;;
53108;SDS011;39007;53.090;6.074;2024-02-04T10:17:47;15.48;;;2.95;;
53108;SDS011;39007;53.090;6.074;2024-02-04T10:20:13;14.10;;;2.83;;
53108;SDS011;39007;53.090;6.074;2024-02-04T10:22:40;16.55;;;3.00;;
53108;SDS011;39007;53.090;6.074;2024-02-04T10:25:09;18.88;;;3.40;;
53108;SDS011;39007;53.090;6.074;2024-02-04T10:27:38;15.15;;;3.17;;
53108;SDS011;39007;53.090;6.074;2024-02-04T10:30:05;14.45;;;2.83;;
53108;SDS011;39007;53.090;6.074;2024-02-04T10:32:31;15.43;;;3.28;;
53108;SDS011;39007;53.090;6.074;2024-02-04T10:34:57;12.98;;;3.00;;
53108;SDS011;39007;53.090;6.074;2024-02-04T10:37:24;13.13;;;3.10;;
53108;SDS011;39007;53.090;6.074;2024-02-04T10:39:50;19.30;;;2.83;;
53108;SDS011;39007;53.090;6.074;2024-02-04T10:42:17;14.35;;;2.97;;
53108;SDS011;39007;53.090;6.074;2024-02-04T10:44:44;12.18;;;2.95;;
53108;SDS011;39007;53.090;6.074;2024-02-04T10:47:11;13.23;;;3.40;;
53108;SDS011;39007;53.090;6.074;2024-02-04T10:49:39;28.13;;;14.10;;
53108;SDS011;39007;53.090;6.074;2024-02-04T10:52:09;16.55;;;3.28;;
53108;SDS011;39007;53.090;6.074;2024-02-04T10:54:37;12.73;;;2.80;;
53108;SDS011;39007;53.090;6.074;2024-02-04T10:57:05;14.75;;;2.95;;
53108;SDS011;39007;53.090;6.074;2024-02-04T10:59:34;13.70;;;3.15;;
53108;SDS011;39007;53.090;6.074;2024-02-04T11:02:00;11.80;;;3.10;;
53108;SDS011;39007;53.090;6.074;2024-02-04T11:04:27;16.88;;;3.30;;
53108;SDS011;39007;53.090;6.074;2024-02-04T11:06:54;14.55;;;3.47;;
53108;SDS011;39007;53.090;6.074;2024-02-04T11:09:21;11.68;;;3.25;;
53108;SDS011;39007;53.090;6.074;2024-02-04T11:11:48;13.23;;;3.60;;
53108;SDS011;39007;53.090;6.074;2024-02-04T11:14:16;15.77;;;4.40;;
53108;SDS011;39007;53.090;6.074;2024-02-04T11:16:48;16.98;;;4.32;;
53108;SDS011;39007;53.090;6.074;2024-02-04T11:24:44;11.32;;;3.20;;
53108;SDS011;39007;53.090;6.074;2024-02-04T11:27:14;12.40;;;3.33;;
53108;SDS011;39007;53.090;6.074;2024-02-04T11:29:41;15.32;;;3.63;;
53108;SDS011;39007;53.090;6.074;2024-02-04T11:32:07;13.40;;;3.30;;
53108;SDS011;39007;53.090;6.074;2024-02-04T11:34:33;14.50;;;4.03;;
53108;SDS011;39007;53.090;6.074;2024-02-04T11:37:00;12.82;;;2.80;;
53108;SDS011;39007;53.090;6.074;2024-02-04T11:39:26;11.93;;;2.92;;
53108;SDS011;39007;53.090;6.074;2024-02-04T11:41:52;10.05;;;3.15;;
53108;SDS011;39007;53.090;6.074;2024-02-04T11:44:22;15.23;;;3.13;;
53108;SDS011;39007;53.090;6.074;2024-02-04T11:46:48;10.73;;;3.25;;
53108;SDS011;39007;53.090;6.074;2024-02-04T11:49:15;12.10;;;4.03;;
53108;SDS011;39007;53.090;6.074;2024-02-04T11:51:44;14.60;;;3.42;;
53108;SDS011;39007;53.090;6.074;2024-02-04T11:54:10;12.13;;;2.97;;
53108;SDS011;39007;53.090;6.074;2024-02-04T11:56:38;10.15;;;2.85;;
53108;SDS011;39007;53.090;6.074;2024-02-04T11:59:06;15.90;;;3.10;;
53108;SDS011;39007;53.090;6.074;2024-02-04T12:01:33;15.30;;;3.08;;
53108;SDS011;39007;53.090;6.074;2024-02-04T12:04:35;11.30;;;2.35;;
53108;SDS011;39007;53.090;6.074;2024-02-04T12:06:54;12.88;;;2.72;;
53108;SDS011;39007;53.090;6.074;2024-02-04T12:09:21;9.75;;;2.50;;
53108;SDS011;39007;53.090;6.074;2024-02-04T12:11:47;13.13;;;2.80;;
53108;SDS011;39007;53.090;6.074;2024-02-04T12:14:14;10.90;;;2.35;;
53108;SDS011;39007;53.090;6.074;2024-02-04T12:16:43;13.20;;;2.92;;
53108;SDS011;39007;53.090;6.074;2024-02-04T12:19:10;12.55;;;2.50;;
53108;SDS011;39007;53.090;6.074;2024-02-04T12:21:36;11.23;;;2.65;;
53108;SDS011;39007;53.090;6.074;2024-02-04T12:24:03;12.30;;;2.85;;
53108;SDS011;39007;53.090;6.074;2024-02-04T12:26:29;10.93;;;2.53;;
53108;SDS011;39007;53.090;6.074;2024-02-04T12:28:55;16.08;;;2.90;;
53108;SDS011;39007;53.090;6.074;2024-02-04T12:31:24;12.95;;;2.88;;
53108;SDS011;39007;53.090;6.074;2024-02-04T12:33:53;10.40;;;2.15;;
53108;SDS011;39007;53.090;6.074;2024-02-04T12:36:29;10.30;;;2.42;;
53108;SDS011;39007;53.090;6.074;2024-02-04T12:38:56;12.35;;;2.58;;
53108;SDS011;39007;53.090;6.074;2024-02-04T12:41:22;13.30;;;2.22;;
53108;SDS011;39007;53.090;6.074;2024-02-04T12:43:52;13.15;;;2.75;;
53108;SDS011;39007;53.090;6.074;2024-02-04T12:46:18;15.65;;;2.50;;
53108;SDS011;39007;53.090;6.074;2024-02-04T12:48:45;9.48;;;2.15;;
53108;SDS011;39007;53.090;6.074;2024-02-04T12:51:11;11.05;;;2.28;;
53108;SDS011;39007;53.090;6.074;2024-02-04T12:53:37;13.32;;;3.05;;
53108;SDS011;39007;53.090;6.074;2024-02-04T12:56:03;14.45;;;2.85;;
53108;SDS011;39007;53.090;6.074;2024-02-04T12:58:30;13.05;;;2.78;;
53108;SDS011;39007;53.090;6.074;2024-02-04T13:01:02;10.60;;;2.55;;
53108;SDS011;39007;53.090;6.074;2024-02-04T13:03:30;13.68;;;3.50;;
53108;SDS011;39007;53.090;6.074;2024-02-04T13:05:59;11.13;;;2.67;;
53108;SDS011;39007;53.090;6.074;2024-02-04T13:08:25;12.57;;;2.70;;
53108;SDS011;39007;53.090;6.074;2024-02-04T13:10:55;14.30;;;2.85;;
53108;SDS011;39007;53.090;6.074;2024-02-04T13:13:22;18.30;;;3.53;;
53108;SDS011;39007;53.090;6.074;2024-02-04T13:15:57;15.77;;;3.08;;
53108;SDS011;39007;53.090;6.074;2024-02-04T13:18:23;13.68;;;2.97;;
53108;SDS011;39007;53.090;6.074;2024-02-04T13:20:49;10.68;;;2.58;;
53108;SDS011;39007;53.090;6.074;2024-02-04T13:23:15;13.15;;;2.60;;
53108;SDS011;39007;53.090;6.074;2024-02-04T13:25:41;19.83;;;3.35;;
53108;SDS011;39007;53.090;6.074;2024-02-04T13:28:07;14.98;;;2.80;;
53108;SDS011;39007;53.090;6.074;2024-02-04T13:30:33;15.52;;;2.72;;
53108;SDS011;39007;53.090;6.074;2024-02-04T13:32:59;14.50;;;2.75;;
53108;SDS011;39007;53.090;6.074;2024-02-04T13:35:27;14.60;;;3.05;;
53108;SDS011;39007;53.090;6.074;2024-02-04T13:37:53;14.77;;;2.72;;
53108;SDS011;39007;53.090;6.074;2024-02-04T13:40:20;8.73;;;2.33;;
53108;SDS011;39007;53.090;6.074;2024-02-04T13:42:48;13.52;;;4.00;;
53108;SDS011;39007;53.090;6.074;2024-02-04T13:45:14;12.20;;;3.28;;
53108;SDS011;39007;53.090;6.074;2024-02-04T13:47:41;15.25;;;2.90;;
53108;SDS011;39007;53.090;6.074;2024-02-04T13:50:07;13.02;;;2.88;;
53108;SDS011;39007;53.090;6.074;2024-02-04T13:52:36;13.15;;;2.30;;
53108;SDS011;39007;53.090;6.074;2024-02-04T13:55:03;12.75;;;2.60;;
53108;SDS011;39007;53.090;6.074;2024-02-04T13:57:32;16.70;;;3.35;;
53108;SDS011;39007;53.090;6.074;2024-02-04T13:59:59;11.63;;;2.50;;
53108;SDS011;39007;53.090;6.074;2024-02-04T14:02:25;10.82;;;2.50;;
53108;SDS011;39007;53.090;6.074;2024-02-04T14:04:54;13.98;;;2.55;;
53108;SDS011;39007;53.090;6.074;2024-02-04T14:07:20;9.93;;;2.60;;
53108;SDS011;39007;53.090;6.074;2024-02-04T14:09:46;9.23;;;2.40;;
53108;SDS011;39007;53.090;6.074;2024-02-04T14:12:12;12.77;;;2.70;;
53108;SDS011;39007;53.090;6.074;2024-02-04T14:14:39;10.68;;;2.70;;
53108;SDS011;39007;53.090;6.074;2024-02-04T14:17:05;7.28;;;2.30;;
53108;SDS011;39007;53.090;6.074;2024-02-04T14:19:31;9.50;;;2.50;;
53108;SDS011;39007;53.090;6.074;2024-02-04T14:21:57;12.18;;;3.08;;
53108;SDS011;39007;53.090;6.074;2024-02-04T14:24:24;11.00;;;2.65;;
53108;SDS011;39007;53.090;6.074;2024-02-04T14:26:55;9.88;;;2.53;;
53108;SDS011;39007;53.090;6.074;2024-02-04T14:29:22;12.15;;;2.60;;
53108;SDS011;39007;53.090;6.074;2024-02-04T14:31:48;11.43;;;2.92;;
53108;SDS011;39007;53.090;6.074;2024-02-04T14:34:14;10.90;;;2.75;;
53108;SDS011;39007;53.090;6.074;2024-02-04T14:36:40;10.25;;;2.72;;
53108;SDS011;39007;53.090;6.074;2024-02-04T14:39:06;9.15;;;2.60;;